createdAt,value
2018-12-12T00:02:12.503Z,101321.39
2018-12-12T00:07:09.856Z,101326.30
2018-12-12T00:12:05.886Z,101333.65
2018-12-12T00:17:01.937Z,101331.07
2018-12-12T00:21:57.979Z,101319.22
2018-12-12T00:26:54.012Z,101324.89
2018-12-12T00:31:51.655Z,101331.13
2018-12-12T00:36:47.822Z,101328.84
2018-12-12T00:41:43.888Z,101328.84
2018-12-12T00:46:40.342Z,101326.05
2018-12-12T00:51:36.529Z,101327.70
2018-12-12T00:56:32.552Z,101344.58
2018-12-12T01:01:28.593Z,101353.66
2018-12-12T01:06:24.636Z,101351.23
2018-12-12T01:11:27.090Z,101348.59
2018-12-12T01:16:23.117Z,101352.89
2018-12-12T01:21:19.189Z,101358.38
2018-12-12T01:26:15.217Z,101356.30
2018-12-12T01:31:11.264Z,101360.83
2018-12-12T01:36:07.416Z,101355.21
2018-12-12T01:41:03.482Z,101361.06
2018-12-12T01:46:00.990Z,101367.36
2018-12-12T01:50:57.007Z,101360.85
2018-12-12T01:55:53.090Z,101364.89
2018-12-12T02:00:49.129Z,101366.06
2018-12-12T02:05:45.146Z,101371.61
2018-12-12T02:10:41.306Z,101372.85
2018-12-12T02:15:37.343Z,101360.22
2018-12-12T02:20:33.352Z,101361.66
2018-12-12T02:25:29.377Z,101377.66
2018-12-12T02:30:25.411Z,101372.92
2018-12-12T02:35:21.511Z,101382.81
2018-12-12T02:40:17.555Z,101386.46
2018-12-12T02:45:13.593Z,101399.83
2018-12-12T02:50:09.621Z,101399.67
2018-12-12T02:55:05.765Z,101399.39
2018-12-12T03:00:02.132Z,101403.44
2018-12-12T03:04:58.158Z,101397.27
2018-12-12T03:09:54.181Z,101392.06
2018-12-12T03:14:50.227Z,101394.45
2018-12-12T03:19:46.293Z,101393.23
2018-12-12T03:24:42.335Z,101398.97
2018-12-12T03:29:38.372Z,101408.58
2018-12-12T03:34:34.435Z,101410.05
2018-12-12T03:39:31.646Z,101412.20
2018-12-12T03:44:27.664Z,101414.09
2018-12-12T03:49:23.779Z,101412.34
2018-12-12T03:54:19.826Z,101417.68
2018-12-12T03:59:15.840Z,101421.73
2018-12-12T04:04:11.853Z,101425.94
2018-12-12T04:09:07.929Z,101427.52
2018-12-12T04:14:03.948Z,101430.71
2018-12-12T04:19:00.193Z,101421.42
2018-12-12T04:23:56.213Z,101422.70
2018-12-12T04:28:52.229Z,101428.25
2018-12-12T04:33:48.333Z,101430.13
2018-12-12T04:38:44.368Z,101437.49
2018-12-12T04:43:40.391Z,101438.73
2018-12-12T04:48:36.429Z,101434.05
2018-12-12T04:53:32.451Z,101424.27
2018-12-12T04:58:28.485Z,101430.33
2018-12-12T05:03:24.592Z,101423.56
2018-12-12T05:08:20.613Z,101424.11
2018-12-12T05:13:16.669Z,101434.92
2018-12-12T05:18:12.701Z,101442.70
2018-12-12T05:23:08.766Z,101443.59
2018-12-12T05:28:04.885Z,101456.94
2018-12-12T05:33:00.926Z,101455.93
2018-12-12T05:37:56.940Z,101463.71
2018-12-12T05:42:52.982Z,101463.54
2018-12-12T05:47:49.001Z,101453.22
2018-12-12T05:52:45.021Z,101465.14
2018-12-12T05:57:41.044Z,101461.00
2018-12-12T06:02:37.802Z,101469.31
2018-12-12T06:07:33.809Z,101469.50
2018-12-12T06:12:29.814Z,101475.78
2018-12-12T06:17:25.978Z,101475.08
2018-12-12T06:22:22.353Z,101479.02
2018-12-12T06:27:18.389Z,101481.86
2018-12-12T06:32:19.362Z,101481.83
2018-12-12T06:37:15.390Z,101492.88
2018-12-12T06:42:11.468Z,101493.94
2018-12-12T06:47:07.529Z,101492.53
2018-12-12T06:52:03.573Z,101498.93
2018-12-12T06:56:59.597Z,101493.38
2018-12-12T07:01:59.239Z,101504.25
2018-12-12T07:06:56.459Z,101496.95
2018-12-12T07:11:52.539Z,101508.62
2018-12-12T07:16:48.586Z,101516.16
2018-12-12T07:21:44.648Z,101509.78
2018-12-12T07:26:40.714Z,101515.43
2018-12-12T07:31:38.526Z,101513.45
2018-12-12T07:36:34.740Z,101512.38
2018-12-12T07:41:31.210Z,101508.84
2018-12-12T07:46:27.947Z,101516.38
2018-12-12T07:51:24.137Z,101520.86
2018-12-12T07:56:20.211Z,101524.86
2018-12-12T08:01:16.292Z,101519.42
2018-12-12T08:06:12.384Z,101535.57
2018-12-12T08:11:08.416Z,101536.16
2018-12-12T08:16:04.789Z,101533.64
2018-12-12T08:21:00.877Z,101538.58
2018-12-12T08:25:56.946Z,101533.05
2018-12-12T08:30:53.166Z,101538.27
2018-12-12T08:35:49.257Z,101534.17
2018-12-12T08:40:45.361Z,101536.06
2018-12-12T08:45:41.433Z,101542.34
2018-12-12T08:50:37.514Z,101538.03
2018-12-12T08:55:33.921Z,101549.11
2018-12-12T09:00:29.976Z,101547.97
2018-12-12T09:05:26.020Z,101550.52
2018-12-12T09:10:22.091Z,101552.22
2018-12-12T09:15:18.147Z,101554.33
2018-12-12T09:20:14.194Z,101556.57
2018-12-12T09:25:10.278Z,101569.01
2018-12-12T09:30:06.538Z,101566.72
2018-12-12T09:35:03.659Z,101572.10
2018-12-12T09:39:59.740Z,101566.23
2018-12-12T09:44:55.785Z,101573.02
2018-12-12T09:49:51.863Z,101581.41
2018-12-12T09:54:47.893Z,101572.53
2018-12-12T09:59:43.949Z,101576.55
2018-12-12T10:04:40.122Z,101574.01
2018-12-12T10:09:36.262Z,101579.57
2018-12-12T10:14:32.306Z,101572.48
2018-12-12T10:19:28.417Z,101583.16
2018-12-12T10:24:24.683Z,101576.86
2018-12-12T10:29:20.758Z,101584.38
2018-12-12T10:34:16.859Z,101577.22
2018-12-12T10:39:12.902Z,101574.33
2018-12-12T10:44:08.990Z,101568.50
2018-12-12T10:49:05.085Z,101568.65
2018-12-12T10:54:01.253Z,101567.62
2018-12-12T10:58:57.416Z,101566.04
2018-12-12T11:03:53.675Z,101570.58
2018-12-12T11:08:49.725Z,101563.15
2018-12-12T11:13:45.770Z,101552.63
2018-12-12T11:18:41.858Z,101552.04
2018-12-12T11:23:37.973Z,101546.66
2018-12-12T11:28:34.074Z,101555.45
2018-12-12T11:33:30.280Z,101551.41
2018-12-12T11:38:26.617Z,101545.98
2018-12-12T11:43:22.759Z,101538.31
2018-12-12T11:48:18.834Z,101535.30
2018-12-12T11:53:15.075Z,101525.38
2018-12-12T11:58:11.225Z,101536.66
2018-12-12T12:03:07.832Z,101536.58
2018-12-12T12:08:04.182Z,101533.64
2018-12-12T12:13:00.391Z,101526.21
2018-12-12T12:17:56.625Z,101523.16
2018-12-12T12:22:52.852Z,101520.07
2018-12-12T12:27:50.142Z,101516.66
2018-12-12T12:32:47.405Z,101517.98
2018-12-12T12:37:43.931Z,101524.19
2018-12-12T12:42:40.006Z,101525.70
2018-12-12T12:47:36.104Z,101521.47
2018-12-12T12:52:32.186Z,101516.52
2018-12-12T12:57:28.242Z,101500.06
2018-12-12T13:02:25.168Z,101511.73
2018-12-12T13:07:21.246Z,101511.50
2018-12-12T13:12:17.366Z,101500.05
2018-12-12T13:17:13.569Z,101503.05
2018-12-12T13:22:09.618Z,101495.46
2018-12-12T13:27:05.787Z,101494.52
2018-12-12T13:32:03.447Z,101502.05
2018-12-12T13:37:00.905Z,101506.02
2018-12-12T13:41:59.706Z,101499.97
2018-12-12T13:46:58.781Z,101493.09
2018-12-12T13:51:56.783Z,101491.70
2018-12-12T13:56:53.016Z,101492.08
2018-12-12T14:01:51.208Z,101482.11
2018-12-12T14:06:47.437Z,101478.83
2018-12-12T14:11:43.472Z,101473.03
2018-12-12T14:16:39.518Z,101474.69
2018-12-12T14:21:35.587Z,101480.40
2018-12-12T14:26:31.645Z,101479.38
2018-12-12T14:31:27.723Z,101481.03
2018-12-12T14:36:23.841Z,101484.73
2018-12-12T14:41:19.955Z,101477.07
2018-12-12T14:46:15.953Z,101479.42
2018-12-12T14:51:12.025Z,101484.23
2018-12-12T14:56:08.071Z,101481.48
2018-12-12T15:01:04.157Z,101484.36
2018-12-12T15:06:00.219Z,101492.77
2018-12-12T15:10:56.264Z,101491.34
2018-12-12T15:15:52.334Z,101490.11
2018-12-12T15:20:48.365Z,101488.26
2018-12-12T15:25:44.392Z,101481.88
2018-12-12T15:30:41.106Z,101483.77
2018-12-12T15:35:37.337Z,101481.91
2018-12-12T15:40:33.469Z,101481.84
2018-12-12T15:45:29.547Z,101486.38
2018-12-12T15:55:32.456Z,101480.06
2018-12-12T16:00:28.992Z,101483.97
2018-12-12T16:05:26.178Z,101486.69
2018-12-12T16:10:22.232Z,101485.09
2018-12-12T16:15:18.269Z,101490.42
2018-12-12T16:20:14.445Z,101487.92
2018-12-12T16:25:10.523Z,101476.73
2018-12-12T16:30:06.709Z,101481.95
2018-12-12T16:35:03.068Z,101481.07
2018-12-12T16:39:59.170Z,101479.86
2018-12-12T16:44:55.224Z,101485.33
2018-12-12T16:49:51.433Z,101488.33
2018-12-12T16:54:47.533Z,101485.31
2018-12-12T16:59:43.573Z,101494.02
2018-12-12T17:04:39.608Z,101500.38
2018-12-12T17:09:35.645Z,101504.20
2018-12-12T17:14:31.681Z,101490.72
2018-12-12T17:19:27.690Z,101489.83
2018-12-12T17:24:23.757Z,101480.73
2018-12-12T17:29:19.822Z,101473.13
2018-12-12T17:34:15.889Z,101488.28
2018-12-12T17:39:11.942Z,101474.97
2018-12-12T17:44:07.975Z,101475.77
2018-12-12T17:49:04.015Z,101471.06
2018-12-12T17:54:00.082Z,101465.45
2018-12-12T17:58:56.373Z,101479.69
2018-12-12T18:03:52.903Z,101482.69
2018-12-12T18:08:49.999Z,101480.61
2018-12-12T18:13:47.070Z,101479.99
2018-12-12T18:18:44.239Z,101496.72
2018-12-12T18:23:40.801Z,101480.66
2018-12-12T18:28:36.908Z,101483.41
2018-12-12T18:33:33.804Z,101486.01
2018-12-12T18:38:30.390Z,101487.18
2018-12-12T18:43:26.386Z,101495.20
2018-12-12T18:48:22.398Z,101492.95
2018-12-12T18:53:18.410Z,101491.56
2018-12-12T18:58:14.425Z,101492.79
2018-12-12T19:03:12.279Z,101487.98
2018-12-12T19:08:09.434Z,101492.33
2018-12-12T19:13:06.665Z,101484.80
2018-12-12T19:18:08.524Z,101482.16
2018-12-12T19:23:08.815Z,101483.92
2018-12-12T19:28:07.565Z,101472.88
2018-12-12T19:33:06.236Z,101476.35
2018-12-12T19:38:05.666Z,101469.47
2018-12-12T19:43:04.383Z,101480.02
2018-12-12T19:48:00.961Z,101476.35
2018-12-12T19:52:57.322Z,101473.67
2018-12-12T19:57:53.683Z,101475.88
2018-12-12T20:02:51.897Z,101468.03
2018-12-12T20:07:48.069Z,101471.94
2018-12-12T20:12:44.106Z,101461.75
2018-12-12T20:17:40.242Z,101466.02
2018-12-12T20:22:38.763Z,101460.41
2018-12-12T20:27:34.812Z,101465.86
2018-12-12T20:32:33.755Z,101459.43
2018-12-12T20:37:31.375Z,101464.50
2018-12-12T20:42:27.454Z,101459.07
2018-12-12T20:47:23.522Z,101464.20
2018-12-12T20:52:19.607Z,101470.83
2018-12-12T20:57:15.846Z,101471.06
2018-12-12T21:02:14.445Z,101467.77
2018-12-12T21:07:11.541Z,101476.31
2018-12-12T21:12:08.768Z,101474.59
2018-12-12T21:17:04.909Z,101465.27
2018-12-12T21:22:01.053Z,101465.45
2018-12-12T21:26:57.129Z,101459.63
2018-12-12T21:32:01.306Z,101463.53
2018-12-12T21:36:57.452Z,101466.27
2018-12-12T21:41:53.469Z,101456.64
2018-12-12T21:46:49.528Z,101454.17
2018-12-12T21:51:45.549Z,101453.39
2018-12-12T21:56:41.614Z,101454.88
2018-12-12T22:01:38.896Z,101447.65
2018-12-12T22:06:35.021Z,101445.67
2018-12-12T22:22:00.115Z,101440.05
2018-12-12T22:27:01.339Z,101441.56
2018-12-12T22:32:11.599Z,101452.02
2018-12-12T22:37:17.837Z,101445.33
2018-12-12T22:42:23.159Z,101441.43
2018-12-12T22:57:34.385Z,101449.41
2018-12-12T23:02:37.457Z,101443.78
2018-12-12T23:07:36.890Z,101432.26
2018-12-12T23:12:42.858Z,101419.31
2018-12-12T23:22:49.344Z,101439.50
2018-12-12T23:27:51.571Z,101438.91
2018-12-12T23:37:51.803Z,101439.08
2018-12-12T23:42:47.998Z,101431.45
2018-12-12T23:47:44.151Z,101433.06
2018-12-12T23:52:40.305Z,101425.27
2018-12-12T23:57:36.481Z,101417.13
